Amboy, California
Current Conditions -  °F | °C
As of 2:56 AM on Saturday 20 Dec 2014 (Local Time) from KNXP Reporting Station
Clear Clear  
Wind Chill: 34°   Ceiling: Unl
Heat Index: 38°   Visibility: 10mi
Dew Point: 34°   Wind: 5mph
Humidity: 86%   Direction: 330°NNW
Pressure: 30.21"   Gusts: NA
Location:  34.56°N, 115.75°W
Report Text: KNXP 201056Z AUTO 33004KT 10SM CLR 03/01 A3021 RMK AO2 SLP216 T00330011 $
Loading
Personal Weather Stations






























Interactive Weather Map New forecast layout! Learn more

10-Day Weather Forecast

Advertisements
Track Severe Weather on mobile